»·PEaware :: AAL410 KPHX-KBUR

AAL410 :: KPHX-KBUR

FLIGHT INFORMATION

Flight Status: Arrived
Operator:
American Airlines
More flights by this operator :: More flights under this callsign
Pilot: Anonymous 17611 (17611)
Aircraft: BOEING 737-800
(B738)
More flights by this aircraft type
Origin: KPHX Phoenix Sky Harbor Intl
United States
Destination: KBUR Bob Hope-Burbank
United States
More flights between these airports :: More routes between these airports
Route: KEENS2 HRRBR PHRED THRNE3
File this flight plan on PilotEdge
Remarks:
Altitude:
(Current/Filed)
34,000ft
Speed:
(Current/Filed)
443kts
Departed: 25-Sep-22 01:29 PM
Arrived: 25-Sep-22 02:32 PM
Distance/Time
Traveled:
320nm/1:02
Distance/Time
To Go:
Arrived

Flight Plot

Page will automatically refresh every two minutes.

Flight plan parsing failed; only flown route is shown


Map Options




Map Legend


Flown Route
Filed Route
Departure Airport
Arrival Airport
Navaid (VOR, NDB)
Fix

Horizontal Profiles

Position Reports

Time Latitude Longitude Heading Altitude Ground
Speed
25-Sep-22 13:00 33.437214 -111.997334 89 1138ft 0kts
25-Sep-22 13:01 33.437214 -111.997334 89 1138ft 0kts
25-Sep-22 13:02 33.437214 -111.997334 89 1138ft 0kts
25-Sep-22 13:03 33.437214 -111.997334 89 1138ft 0kts
25-Sep-22 13:04 33.437214 -111.997334 89 1138ft 0kts
25-Sep-22 13:05 33.437214 -111.997334 89 1138ft 0kts
25-Sep-22 13:06 33.437214 -111.997334 89 1138ft 0kts
25-Sep-22 13:07 33.437214 -111.997334 89 1138ft 0kts
25-Sep-22 13:08 33.437214 -111.997334 89 1138ft 0kts
25-Sep-22 13:09 33.437214 -111.997334 89 1138ft 0kts
25-Sep-22 13:10 33.437214 -111.997334 89 1138ft 0kts
25-Sep-22 13:11 33.437214 -111.997334 89 1165ft 0kts
25-Sep-22 13:12 33.437214 -111.997334 89 1165ft 0kts
25-Sep-22 13:13 33.437214 -111.997334 89 1165ft 0kts
25-Sep-22 13:14 33.437214 -111.997334 89 1165ft 0kts
25-Sep-22 13:15 33.437214 -111.997334 89 1165ft 0kts
25-Sep-22 13:16 33.437214 -111.997334 89 1165ft 0kts
25-Sep-22 13:17 33.437214 -111.997334 89 1165ft 0kts
25-Sep-22 13:18 33.437214 -111.997334 89 1165ft 0kts
25-Sep-22 13:19 33.437214 -111.997334 89 1166ft 0kts
25-Sep-22 13:20 33.436934 -111.997838 3 1139ft 1kts
25-Sep-22 13:21 33.436890 -111.997840 1 1141ft 0kts
25-Sep-22 13:22 33.436890 -111.997840 1 1141ft 0kts
25-Sep-22 13:23 33.438321 -111.997818 358 1140ft 8kts
25-Sep-22 13:24 33.439739 -112.000625 270 1139ft 22kts
25-Sep-22 13:25 33.439737 -112.009616 270 1130ft 24kts
25-Sep-22 13:26 33.439746 -112.018483 269 1119ft 34kts
25-Sep-22 13:27 33.439744 -112.028325 269 1118ft 22kts
25-Sep-22 13:28 33.440857 -112.025062 90 1118ft 84kts
25-Sep-22 13:29 33.440401 -111.971599 92 2777ft 189kts
25-Sep-22 13:30 33.436325 -111.899114 92 4770ft 242kts
25-Sep-22 13:31 33.394943 -111.842143 178 7586ft 258kts
25-Sep-22 13:32 33.352545 -111.898339 280 10327ft 258kts
25-Sep-22 13:33 33.361862 -111.990930 277 11916ft 322kts
25-Sep-22 13:34 33.377409 -112.107334 281 13531ft 371kts
25-Sep-22 13:35 33.396254 -112.231727 281 15900ft 387kts
25-Sep-22 13:36 33.415331 -112.361416 280 18163ft 403kts
25-Sep-22 13:37 33.434869 -112.495431 280 20086ft 416kts
25-Sep-22 13:38 33.452061 -112.634375 271 21876ft 429kts
25-Sep-22 13:39 33.452402 -112.779421 271 23537ft 441kts
25-Sep-22 13:40 33.474850 -112.925007 284 24874ft 450kts
25-Sep-22 13:41 33.503637 -113.072061 283 26176ft 459kts
25-Sep-22 13:42 33.531514 -113.223108 283 27409ft 467kts
25-Sep-22 13:43 33.559523 -113.375731 283 28924ft 467kts
25-Sep-22 13:44 33.587331 -113.528070 283 29926ft 473kts
25-Sep-22 13:45 33.616202 -113.682849 283 30828ft 476kts
25-Sep-22 13:46 33.644948 -113.838060 283 32243ft 473kts
25-Sep-22 13:47 33.661122 -113.993064 260 33549ft 473kts
25-Sep-22 13:48 33.647529 -114.150857 277 33937ft 482kts
25-Sep-22 13:49 33.664526 -114.310976 277 33918ft 484kts
25-Sep-22 13:50 33.680337 -114.471077 277 33921ft 482kts
25-Sep-22 13:51 33.695784 -114.630625 277 33934ft 481kts
25-Sep-22 13:52 33.711128 -114.791231 276 33931ft 486kts
25-Sep-22 13:53 33.726310 -114.952380 276 33928ft 487kts
25-Sep-22 13:54 33.741147 -115.111990 276 33268ft 468kts
25-Sep-22 13:55 33.756190 -115.266700 278 30850ft 462kts
25-Sep-22 13:56 33.771546 -115.417416 277 28810ft 446kts
25-Sep-22 13:57 33.786485 -115.561667 277 27203ft 433kts
25-Sep-22 13:58 33.800593 -115.704398 277 25633ft 424kts
25-Sep-22 13:59 33.814142 -115.843756 277 24084ft 415kts
25-Sep-22 14:00 33.828040 -115.980938 277 22467ft 408kts
25-Sep-22 14:01 33.841395 -116.114197 277 21000ft 398kts
25-Sep-22 14:02 33.851860 -116.247838 276 19390ft 396kts
25-Sep-22 14:03 33.861965 -116.377938 277 17745ft 383kts
25-Sep-22 14:04 33.873995 -116.501807 277 16189ft 365kts
25-Sep-22 14:05 33.891313 -116.620782 282 15199ft 361kts
25-Sep-22 14:06 33.909995 -116.738667 281 14421ft 356kts
25-Sep-22 14:07 33.928352 -116.854930 281 13725ft 351kts
25-Sep-22 14:08 33.946529 -116.969569 284 12951ft 347kts
25-Sep-22 14:09 33.973755 -117.081790 287 11242ft 346kts
25-Sep-22 14:10 33.999740 -117.190375 287 10732ft 344kts
25-Sep-22 14:11 34.026060 -117.300524 287 10422ft 338kts
25-Sep-22 14:12 34.051021 -117.405350 287 10098ft 305kts
25-Sep-22 14:13 34.073214 -117.498616 286 9986ft 280kts
25-Sep-22 14:14 34.087995 -117.592102 280 9621ft 284kts
25-Sep-22 14:15 34.102213 -117.685705 281 9272ft 283kts
25-Sep-22 14:16 34.116513 -117.778954 280 8895ft 281kts
25-Sep-22 14:17 34.130660 -117.871603 280 8527ft 281kts
25-Sep-22 14:18 34.144756 -117.964287 280 8146ft 282kts
25-Sep-22 14:19 34.149604 -118.057815 264 7991ft 282kts
25-Sep-22 14:20 34.142471 -118.152509 264 7989ft 285kts
25-Sep-22 14:21 34.135584 -118.245187 264 7424ft 272kts
25-Sep-22 14:22 34.131005 -118.336400 273 6387ft 274kts
25-Sep-22 14:23 34.137366 -118.425965 274 5997ft 256kts
25-Sep-22 14:24 34.144436 -118.506469 289 5973ft 233kts
25-Sep-22 14:25 34.199197 -118.535425 351 5281ft 227kts
25-Sep-22 14:26 34.261751 -118.544808 16 4497ft 224kts
25-Sep-22 14:27 34.289510 -118.485322 79 3579ft 205kts
25-Sep-22 14:28 34.281296 -118.420841 137 3401ft 194kts
25-Sep-22 14:29 34.243980 -118.377358 131 2299ft 170kts
25-Sep-22 14:30 34.206301 -118.358767 168 753ft 131kts
25-Sep-22 14:31 34.195794 -118.355375 3 699ft 2kts
25-Sep-22 14:32 34.197232 -118.354965 92 718ft 17kts

Navigation Log

Ident Type
Flight plan parsing failed, navigation log unavailable